createdAt,value
2018-06-29T00:02:11.950Z,15.10
2018-06-29T00:04:46.368Z,15.10
2018-06-29T00:07:22.329Z,15.20
2018-06-29T00:12:30.692Z,15.10
2018-06-29T00:15:04.979Z,15.10
2018-06-29T00:17:39.298Z,15.20
2018-06-29T00:20:13.581Z,15.10
2018-06-29T00:22:47.841Z,15.10
2018-06-29T00:25:22.077Z,15.20
2018-06-29T00:27:56.456Z,15.20
2018-06-29T00:33:04.818Z,15.20
2018-06-29T00:35:39.127Z,15.20
2018-06-29T00:38:13.359Z,15.30
2018-06-29T00:40:47.871Z,15.20
2018-06-29T00:43:22.128Z,14.80
2018-06-29T00:45:56.540Z,14.80
2018-06-29T00:48:30.861Z,14.80
2018-06-29T00:51:05.247Z,14.90
2018-06-29T00:53:39.567Z,15.00
2018-06-29T00:58:47.961Z,15.10
2018-06-29T01:01:22.254Z,15.20
2018-06-29T01:03:56.614Z,15.20
2018-06-29T01:06:30.937Z,15.20
2018-06-29T01:09:07.965Z,15.30
2018-06-29T01:11:42.301Z,15.30
2018-06-29T01:14:16.760Z,15.30
2018-06-29T01:16:51.108Z,15.30
2018-06-29T01:19:25.511Z,15.20
2018-06-29T01:21:59.817Z,15.20
2018-06-29T01:24:34.245Z,15.20
2018-06-29T01:27:08.588Z,15.20
2018-06-29T01:29:42.879Z,15.20
2018-06-29T01:32:17.304Z,15.30
2018-06-29T01:34:52.082Z,15.30
2018-06-29T01:37:26.544Z,15.30
2018-06-29T01:40:00.971Z,15.30
2018-06-29T01:42:35.230Z,15.30
2018-06-29T01:45:09.517Z,15.30
2018-06-29T01:47:44.219Z,15.30
2018-06-29T01:50:18.717Z,15.30
2018-06-29T01:52:53.187Z,15.30
2018-06-29T01:58:01.783Z,15.10
2018-06-29T02:00:36.131Z,15.10
2018-06-29T02:03:10.567Z,15.10
2018-06-29T02:05:44.917Z,14.80
2018-06-29T02:08:19.328Z,14.80
2018-06-29T02:13:27.753Z,14.90
2018-06-29T02:16:02.169Z,14.90
2018-06-29T02:18:36.507Z,15.00
2018-06-29T02:21:10.819Z,15.10
2018-06-29T02:23:45.181Z,15.10
2018-06-29T02:26:19.524Z,14.80
2018-06-29T02:28:54.064Z,14.90
2018-06-29T02:31:28.443Z,15.00
2018-06-29T02:39:12.903Z,14.90
2018-06-29T02:41:47.259Z,14.60
2018-06-29T02:44:21.563Z,14.20
2018-06-29T02:46:55.999Z,14.00
2018-06-29T02:49:30.300Z,14.10
2018-06-29T02:52:04.753Z,13.90
2018-06-29T02:59:48.472Z,13.90
2018-06-29T03:04:56.915Z,14.00
2018-06-29T03:07:31.189Z,14.30
2018-06-29T03:10:05.545Z,14.40
2018-06-29T03:12:39.761Z,14.50
2018-06-29T03:15:14.160Z,14.60
2018-06-29T03:17:48.492Z,14.60
2018-06-29T03:20:22.887Z,14.70
2018-06-29T03:22:57.109Z,14.80
2018-06-29T03:25:31.362Z,14.90
2018-06-29T03:28:05.838Z,14.90
2018-06-29T03:30:40.088Z,14.90
2018-06-29T03:33:14.386Z,14.90
2018-06-29T03:38:22.774Z,14.60
2018-06-29T03:40:56.994Z,14.80
2018-06-29T03:43:31.334Z,14.90
2018-06-29T03:46:05.750Z,15.00
2018-06-29T03:48:40.070Z,15.00
2018-06-29T03:51:14.279Z,15.00
2018-06-29T03:53:48.630Z,15.00
2018-06-29T03:56:22.895Z,14.70
2018-06-29T03:58:57.189Z,14.70
2018-06-29T04:01:31.418Z,14.80
2018-06-29T04:04:05.782Z,14.70
2018-06-29T04:09:14.226Z,14.30
2018-06-29T04:11:48.666Z,14.40
2018-06-29T04:14:23.836Z,14.50
2018-06-29T04:16:58.229Z,14.50
2018-06-29T04:19:32.581Z,14.60
2018-06-29T04:22:06.807Z,14.50
2018-06-29T04:24:41.161Z,14.40
2018-06-29T04:27:15.466Z,14.30
2018-06-29T04:29:49.712Z,14.50
2018-06-29T04:32:24.134Z,14.60
2018-06-29T04:34:58.367Z,14.60
2018-06-29T04:37:32.733Z,14.80
2018-06-29T04:40:07.219Z,14.90
2018-06-29T04:47:49.725Z,14.70
2018-06-29T04:50:24.090Z,14.60
2018-06-29T04:52:58.464Z,14.80
2018-06-29T04:55:32.823Z,14.90
2018-06-29T04:58:07.129Z,14.90
2018-06-29T05:00:41.519Z,15.00
2018-06-29T05:03:15.935Z,15.10
2018-06-29T05:05:50.226Z,15.10
2018-06-29T05:08:24.671Z,15.10
2018-06-29T05:10:59.030Z,15.00
2018-06-29T05:13:33.389Z,14.90
2018-06-29T05:18:41.842Z,14.80
2018-06-29T05:21:16.117Z,14.70
2018-06-29T05:23:50.474Z,14.80
2018-06-29T05:28:58.995Z,14.90
2018-06-29T05:31:33.422Z,14.60
2018-06-29T05:34:07.872Z,14.80
2018-06-29T05:36:42.265Z,14.90
2018-06-29T05:39:16.609Z,14.80
2018-06-29T05:41:51.145Z,15.00
2018-06-29T05:44:25.504Z,14.80
2018-06-29T05:47:00.573Z,14.80
2018-06-29T05:49:35.023Z,14.80
2018-06-29T05:52:09.543Z,14.60
2018-06-29T05:54:43.906Z,14.50
2018-06-29T05:57:18.343Z,14.40
2018-06-29T05:59:52.661Z,14.50
2018-06-29T06:02:27.337Z,14.50
2018-06-29T06:05:01.755Z,14.70
2018-06-29T06:07:36.071Z,14.90
2018-06-29T06:10:10.459Z,14.90
2018-06-29T06:12:44.726Z,15.10
2018-06-29T06:15:19.040Z,15.20
2018-06-29T06:17:53.304Z,14.80
2018-06-29T06:23:14.338Z,14.70
2018-06-29T06:25:48.933Z,14.90
2018-06-29T06:28:23.357Z,15.10
2018-06-29T06:30:57.673Z,15.20
2018-06-29T06:33:32.085Z,15.30
2018-06-29T06:36:06.441Z,15.40
2018-06-29T06:38:40.773Z,15.50
2018-06-29T06:41:15.245Z,15.40
2018-06-29T06:43:49.570Z,15.60
2018-06-29T06:46:23.915Z,15.40
2018-06-29T06:56:40.865Z,15.60
2018-06-29T06:59:15.239Z,15.80
2018-06-29T07:01:49.567Z,15.80
2018-06-29T07:04:24.063Z,15.90
2018-06-29T07:06:58.447Z,16.00
2018-06-29T07:12:06.941Z,15.90
2018-06-29T07:14:41.298Z,16.00
2018-06-29T07:22:23.853Z,15.70
2018-06-29T07:24:58.261Z,15.60
2018-06-29T07:27:33.394Z,15.80
2018-06-29T07:30:08.455Z,16.00
2018-06-29T07:32:43.453Z,16.00
2018-06-29T07:35:17.963Z,15.90
2018-06-29T07:40:26.412Z,16.10
2018-06-29T07:43:00.737Z,15.90
2018-06-29T07:45:35.228Z,15.90
2018-06-29T07:48:09.541Z,16.00
2018-06-29T07:50:43.933Z,15.90
2018-06-29T07:53:18.249Z,16.00
2018-06-29T07:55:52.647Z,15.90
2018-06-29T07:58:27.024Z,15.90
2018-06-29T08:01:03.230Z,16.00
2018-06-29T08:03:37.570Z,16.20
2018-06-29T08:06:11.890Z,16.30
2018-06-29T08:08:46.230Z,16.30
2018-06-29T08:11:20.546Z,16.30
2018-06-29T08:13:54.842Z,16.30
2018-06-29T08:16:29.205Z,16.30
2018-06-29T08:19:04.283Z,16.30
2018-06-29T08:21:38.626Z,16.40
2018-06-29T08:24:13.033Z,16.50
2018-06-29T08:26:47.426Z,16.50
2018-06-29T08:29:21.811Z,16.40
2018-06-29T08:31:56.159Z,16.50
2018-06-29T08:34:30.434Z,16.50
2018-06-29T08:39:39.049Z,16.50
2018-06-29T08:42:13.631Z,16.40
2018-06-29T08:44:48.100Z,16.40
2018-06-29T08:47:22.561Z,16.30
2018-06-29T08:49:56.931Z,16.30
2018-06-29T08:52:31.334Z,15.90
2018-06-29T08:55:05.738Z,15.70
2018-06-29T08:57:40.081Z,16.00
2018-06-29T09:00:14.250Z,16.20
2018-06-29T09:02:48.627Z,16.00
2018-06-29T09:05:22.960Z,15.90
2018-06-29T09:07:57.209Z,16.10
2018-06-29T09:10:31.587Z,16.10
2018-06-29T09:13:05.860Z,16.10
2018-06-29T09:15:40.188Z,16.10
2018-06-29T09:18:14.551Z,16.30
2018-06-29T09:20:48.898Z,16.50
2018-06-29T09:23:23.161Z,16.70
2018-06-29T09:25:57.475Z,16.70
2018-06-29T09:28:31.873Z,16.80
2018-06-29T09:31:06.105Z,16.80
2018-06-29T09:33:40.503Z,17.00
2018-06-29T09:36:15.107Z,17.00
2018-06-29T09:38:49.511Z,17.10
2018-06-29T09:41:23.839Z,17.10
2018-06-29T09:43:58.180Z,17.10
2018-06-29T09:46:32.552Z,17.10
2018-06-29T09:49:06.836Z,17.00
2018-06-29T09:51:41.184Z,16.80
2018-06-29T09:54:15.579Z,16.80
2018-06-29T09:56:49.800Z,16.90
2018-06-29T09:59:23.974Z,17.00
2018-06-29T10:01:58.354Z,17.10
2018-06-29T10:04:32.670Z,17.20
2018-06-29T10:07:07.843Z,17.20
2018-06-29T10:09:42.286Z,17.00
2018-06-29T10:12:16.519Z,17.00
2018-06-29T10:14:50.963Z,17.10
2018-06-29T10:17:25.296Z,17.00
2018-06-29T10:19:59.564Z,17.10
2018-06-29T10:22:34.004Z,16.80
2018-06-29T10:25:08.267Z,16.70
2018-06-29T10:27:42.710Z,16.90
2018-06-29T10:30:17.063Z,16.50
2018-06-29T10:32:51.421Z,16.80
2018-06-29T10:35:25.763Z,16.60
2018-06-29T10:40:34.174Z,16.50
2018-06-29T10:43:08.649Z,16.50
2018-06-29T10:45:42.962Z,16.70
2018-06-29T10:48:17.191Z,16.80
2018-06-29T10:50:51.420Z,16.60
2018-06-29T10:53:25.753Z,16.80
2018-06-29T10:55:59.981Z,16.90
2018-06-29T10:58:34.355Z,17.00
2018-06-29T11:01:08.901Z,17.30
2018-06-29T11:06:17.688Z,17.00
2018-06-29T11:08:51.974Z,17.30
2018-06-29T11:11:26.249Z,17.60
2018-06-29T11:19:08.575Z,18.10
2018-06-29T11:21:42.897Z,18.10
2018-06-29T11:24:17.279Z,18.10
2018-06-29T11:26:51.561Z,17.50
2018-06-29T11:29:25.859Z,17.00
2018-06-29T11:34:34.202Z,17.10
2018-06-29T11:37:08.473Z,17.40
2018-06-29T11:39:42.950Z,17.70
2018-06-29T11:42:17.251Z,17.90
2018-06-29T11:44:51.704Z,18.10
2018-06-29T11:47:25.951Z,18.10
2018-06-29T11:52:34.559Z,18.10
2018-06-29T11:55:08.919Z,18.20
2018-06-29T11:57:43.316Z,18.30
2018-06-29T12:00:17.779Z,18.40
2018-06-29T12:05:26.621Z,18.70
2018-06-29T12:08:01.091Z,18.50
2018-06-29T12:10:35.543Z,18.50
2018-06-29T12:13:09.929Z,18.60
2018-06-29T12:15:44.195Z,19.00
2018-06-29T12:18:18.452Z,19.20
2018-06-29T12:20:52.739Z,19.20
2018-06-29T12:23:27.283Z,19.60
2018-06-29T12:26:01.740Z,19.80
2018-06-29T12:28:36.098Z,19.80
2018-06-29T12:33:44.645Z,20.30
2018-06-29T12:36:18.945Z,20.30
2018-06-29T12:38:53.442Z,20.30
2018-06-29T12:41:28.067Z,20.40
2018-06-29T12:44:02.526Z,20.40
2018-06-29T12:46:37.542Z,20.60
2018-06-29T12:49:11.963Z,20.00
2018-06-29T12:51:46.321Z,19.60
2018-06-29T12:54:20.751Z,19.50
2018-06-29T12:56:55.139Z,20.10
2018-06-29T12:59:29.491Z,20.50
2018-06-29T13:02:03.995Z,20.80
2018-06-29T13:04:38.523Z,21.10
2018-06-29T13:09:47.041Z,20.90
2018-06-29T13:14:55.746Z,21.20
2018-06-29T13:17:30.419Z,21.40
2018-06-29T13:20:05.263Z,21.60
2018-06-29T13:22:39.544Z,21.60
2018-06-29T13:25:13.876Z,21.70
2018-06-29T13:27:48.099Z,21.90
2018-06-29T13:30:22.365Z,21.80
2018-06-29T13:35:30.691Z,21.80
2018-06-29T13:38:05.016Z,21.70
2018-06-29T13:40:39.448Z,21.70
2018-06-29T13:43:13.695Z,21.70
2018-06-29T13:45:48.014Z,21.50
2018-06-29T13:48:22.373Z,21.30
2018-06-29T13:50:56.688Z,21.40
2018-06-29T13:53:31.152Z,21.50
2018-06-29T13:56:05.578Z,21.70
2018-06-29T13:58:40.001Z,21.80
2018-06-29T14:03:48.516Z,21.90
2018-06-29T14:08:57.234Z,21.80
2018-06-29T14:16:39.888Z,21.70
2018-06-29T14:19:14.242Z,21.70
2018-06-29T14:21:48.579Z,21.80
2018-06-29T14:24:22.988Z,21.90
2018-06-29T14:26:57.521Z,21.90
2018-06-29T14:29:31.832Z,22.10
2018-06-29T14:32:06.304Z,22.30
2018-06-29T14:34:40.748Z,22.60
2018-06-29T14:37:15.282Z,22.50
2018-06-29T14:39:49.784Z,22.40
2018-06-29T14:44:58.435Z,22.20
2018-06-29T14:50:06.861Z,22.00
2018-06-29T14:52:41.165Z,22.00
2018-06-29T14:57:49.693Z,22.00
2018-06-29T15:00:24.139Z,22.00
2018-06-29T15:02:58.643Z,22.20
2018-06-29T15:05:32.975Z,22.30
2018-06-29T15:08:07.441Z,22.60
2018-06-29T15:10:42.871Z,22.80
2018-06-29T15:13:17.227Z,22.70
2018-06-29T15:15:51.619Z,22.50
2018-06-29T15:18:26.028Z,22.40
2018-06-29T15:21:00.357Z,22.20
2018-06-29T15:23:34.659Z,22.20
2018-06-29T15:26:09.005Z,22.20
2018-06-29T15:28:43.438Z,22.30
2018-06-29T15:31:18.096Z,22.40
2018-06-29T15:39:00.745Z,22.40
2018-06-29T15:41:35.025Z,22.40
2018-06-29T15:46:44.162Z,22.40
2018-06-29T15:49:19.010Z,22.50
2018-06-29T15:51:53.543Z,22.60
2018-06-29T15:54:27.891Z,22.80
2018-06-29T15:57:02.211Z,23.00
2018-06-29T16:02:11.031Z,23.30
2018-06-29T16:04:45.350Z,23.30
2018-06-29T16:07:19.768Z,23.60
2018-06-29T16:09:54.274Z,23.60
2018-06-29T16:12:28.685Z,23.60
2018-06-29T16:15:03.155Z,24.30
2018-06-29T16:17:37.548Z,24.90
2018-06-29T16:20:11.874Z,25.70
2018-06-29T16:30:28.883Z,27.30
2018-06-29T16:33:03.269Z,27.80
2018-06-29T16:35:37.591Z,28.50
2018-06-29T16:38:12.068Z,28.90
2018-06-29T16:40:46.616Z,29.00
2018-06-29T16:43:21.057Z,29.20
2018-06-29T16:45:55.375Z,29.60
2018-06-29T16:48:29.796Z,29.70
2018-06-29T16:51:04.269Z,29.80
2018-06-29T16:53:38.703Z,29.60
2018-06-29T16:56:13.027Z,29.40
2018-06-29T16:58:47.290Z,29.40
2018-06-29T17:01:21.576Z,29.60
2018-06-29T17:03:55.858Z,29.60
2018-06-29T17:06:30.207Z,29.90
2018-06-29T17:09:07.047Z,29.80
2018-06-29T17:11:41.242Z,29.80
2018-06-29T17:14:15.609Z,30.10
2018-06-29T17:21:58.316Z,29.20
2018-06-29T17:27:06.770Z,27.90
2018-06-29T17:29:41.426Z,28.20
2018-06-29T17:32:16.022Z,28.40
2018-06-29T17:34:50.387Z,28.40
2018-06-29T17:37:24.664Z,28.70
2018-06-29T17:39:58.918Z,28.80
2018-06-29T17:42:33.286Z,29.10
2018-06-29T17:45:07.606Z,29.00
2018-06-29T17:47:41.882Z,28.90
2018-06-29T17:52:50.279Z,28.80
2018-06-29T17:55:24.545Z,28.70
2018-06-29T18:00:32.956Z,28.00
2018-06-29T18:05:42.336Z,27.10
2018-06-29T18:08:16.654Z,26.50
2018-06-29T18:10:51.096Z,26.00
2018-06-29T18:15:59.569Z,25.30
2018-06-29T18:18:33.830Z,25.00
2018-06-29T18:21:08.187Z,24.60
2018-06-29T18:23:42.518Z,24.40
2018-06-29T18:26:17.064Z,24.30
2018-06-29T18:31:25.555Z,23.70
2018-06-29T18:36:34.167Z,23.20
2018-06-29T18:39:09.305Z,23.00
2018-06-29T18:41:44.662Z,22.80
2018-06-29T18:44:19.076Z,22.60
2018-06-29T18:46:53.320Z,22.50
2018-06-29T18:49:27.703Z,22.40
2018-06-29T18:52:01.950Z,22.20
2018-06-29T18:54:36.214Z,22.00
2018-06-29T18:57:10.436Z,21.80
2018-06-29T18:59:44.858Z,21.60
2018-06-29T19:02:19.376Z,21.50
2018-06-29T19:04:53.798Z,21.30
2018-06-29T19:07:28.265Z,21.10
2018-06-29T19:10:02.828Z,20.90
2018-06-29T19:12:37.381Z,20.70
2018-06-29T19:15:11.678Z,20.30
2018-06-29T19:17:46.052Z,20.40
2018-06-29T19:20:20.339Z,20.40
2018-06-29T19:25:29.059Z,19.40
2018-06-29T19:28:03.411Z,19.60
2018-06-29T19:30:37.834Z,19.60
2018-06-29T19:40:54.970Z,19.40
2018-06-29T19:43:29.422Z,19.40
2018-06-29T19:51:12.080Z,19.20
2018-06-29T19:56:20.676Z,19.10
2018-06-29T19:58:55.090Z,19.10
2018-06-29T20:01:29.337Z,19.00
2018-06-29T20:04:03.878Z,18.90
2018-06-29T20:06:38.221Z,18.70
2018-06-29T20:09:13.655Z,18.70
2018-06-29T20:11:48.042Z,18.70
2018-06-29T20:14:22.353Z,18.60
2018-06-29T20:16:56.704Z,18.50
2018-06-29T20:19:30.947Z,18.40
2018-06-29T20:22:05.402Z,18.30
2018-06-29T20:24:39.863Z,18.30
2018-06-29T20:27:14.042Z,18.10
2018-06-29T20:29:48.580Z,18.00
2018-06-29T20:32:22.948Z,18.10
2018-06-29T20:37:32.024Z,18.10
2018-06-29T20:42:40.672Z,18.00
2018-06-29T20:45:14.956Z,17.90
2018-06-29T20:47:49.343Z,17.90
2018-06-29T20:50:23.695Z,17.80
2018-06-29T20:52:57.959Z,17.70
2018-06-29T20:55:32.257Z,17.70
2018-06-29T20:58:06.717Z,17.70
2018-06-29T21:00:41.086Z,17.20
2018-06-29T21:03:15.426Z,16.70
2018-06-29T21:05:49.714Z,16.90
2018-06-29T21:08:24.187Z,16.90
2018-06-29T21:13:32.650Z,17.10
2018-06-29T21:16:06.925Z,17.10
2018-06-29T21:18:41.202Z,17.20
2018-06-29T21:21:15.635Z,17.10
2018-06-29T21:23:50.080Z,17.10
2018-06-29T21:26:24.413Z,17.10
2018-06-29T21:31:33.626Z,17.10
2018-06-29T21:34:08.098Z,17.10
2018-06-29T21:39:16.686Z,16.70
2018-06-29T21:41:51.117Z,16.70
2018-06-29T21:44:25.434Z,16.70
2018-06-29T21:46:59.793Z,16.70
2018-06-29T21:49:34.071Z,16.60
2018-06-29T21:52:08.390Z,16.60
2018-06-29T21:54:42.730Z,16.60
2018-06-29T21:57:17.133Z,16.60
2018-06-29T22:02:25.462Z,16.70
2018-06-29T22:04:59.869Z,16.70
2018-06-29T22:07:34.170Z,16.60
2018-06-29T22:10:09.640Z,16.60
2018-06-29T22:12:43.885Z,16.70
2018-06-29T22:15:23.466Z,16.60
2018-06-29T22:20:32.579Z,16.50
2018-06-29T22:23:07.009Z,16.50
2018-06-29T22:25:41.306Z,16.50
2018-06-29T22:28:15.577Z,16.60
2018-06-29T22:30:49.863Z,16.60
2018-06-29T22:33:24.251Z,16.60
2018-06-29T22:35:58.815Z,16.50
2018-06-29T22:43:41.518Z,16.40
2018-06-29T22:46:15.872Z,16.40
2018-06-29T22:48:50.369Z,16.50
2018-06-29T22:53:58.873Z,16.30
2018-06-29T22:56:33.164Z,16.30
2018-06-29T22:59:07.477Z,16.30
2018-06-29T23:01:42.002Z,16.20
2018-06-29T23:04:17.033Z,16.30
2018-06-29T23:06:51.581Z,16.30
2018-06-29T23:09:26.004Z,16.20
2018-06-29T23:12:00.255Z,16.20
2018-06-29T23:14:34.698Z,16.10
2018-06-29T23:17:09.106Z,16.20
2018-06-29T23:19:43.504Z,16.20
2018-06-29T23:22:18.011Z,16.10
2018-06-29T23:24:52.308Z,16.10
2018-06-29T23:27:26.848Z,16.00
2018-06-29T23:30:01.152Z,16.00
2018-06-29T23:32:35.519Z,16.00
2018-06-29T23:37:44.015Z,16.00
2018-06-29T23:42:52.631Z,15.80
2018-06-29T23:45:27.080Z,15.80
2018-06-29T23:48:01.630Z,15.80
2018-06-29T23:50:36.386Z,15.80
2018-06-29T23:53:10.658Z,15.80
2018-06-29T23:55:44.942Z,15.80
2018-06-29T23:58:19.262Z,15.80
